Data Viewer
| City | State | Eastern Time | Source | Temp | DewPt | RH | BP | 5 Min Precip | Wind Speed | Wind Dir | 5 Min Wind Max | 5 Min Wind Max Dir |
|---|---|---|---|---|---|---|---|---|---|---|---|---|
| Paulsboro | NJ | 2026-05-06 05:15 | NJDOT | 64 | 57 | 78 | 14 | |||||
| Paulsboro | NJ | 2026-05-06 21:50 | NJDOT | 66 | 61 | 84 | 6 | |||||
| Paulsboro | NJ | 2026-05-06 20:35 | NJDOT | 67 | 61 | 81 | 5 | |||||
| Paulsboro | NJ | 2026-05-06 20:40 | NJDOT | 67 | 61 | 81 | 8 | |||||
| Paulsboro | NJ | 2026-05-06 20:45 | NJDOT | 67 | 61 | 81 | 8 | |||||
| Paulsboro | NJ | 2026-05-06 20:50 | NJDOT | 67 | 61 | 81 | 7 | |||||
| Paulsboro | NJ | 2026-05-06 20:55 | NJDOT | 67 | 61 | 81 | 7 | |||||
| Paulsboro | NJ | 2026-05-06 21:00 | NJDOT | 67 | 61 | 81 | 7 | |||||
| Paulsboro | NJ | 2026-05-06 21:15 | NJDOT | 67 | 61 | 82 | 8 | |||||
| Paulsboro | NJ | 2026-05-06 21:20 | NJDOT | 67 | 61 | 82 | 8 | |||||
| Paulsboro | NJ | 2026-05-06 21:30 | NJDOT | 67 | 61 | 83 | 6 | |||||
| Paulsboro | NJ | 2026-05-06 21:35 | NJDOT | 67 | 61 | 83 | 4 | |||||
| Paulsboro | NJ | 2026-05-06 21:40 | NJDOT | 67 | 61 | 83 | 4 | |||||
| Paulsboro | NJ | 2026-05-06 21:45 | NJDOT | 66 | 61 | 84 | 4 | |||||
| Paulsboro | NJ | 2026-05-06 22:00 | NJDOT | 66 | 61 | 84 | 4 | |||||
| Paulsboro | NJ | 2026-05-06 20:25 | NJDOT | 67 | 61 | 80 | 5 | |||||
| Paulsboro | NJ | 2026-05-06 22:05 | NJDOT | 67 | 61 | 83 | 5 | |||||
| Paulsboro | NJ | 2026-05-06 22:10 | NJDOT | 66 | 61 | 84 | 5 | |||||
| Paulsboro | NJ | 2026-05-06 22:15 | NJDOT | 66 | 61 | 84 | 5 | |||||
| Paulsboro | NJ | 2026-05-06 22:20 | NJDOT | 66 | 61 | 85 | 5 | |||||
| Paulsboro | NJ | 2026-05-06 22:25 | NJDOT | 66 | 61 | 84 | 4 | |||||
| Paulsboro | NJ | 2026-05-06 22:30 | NJDOT | 66 | 61 | 84 | 5 | |||||
| Paulsboro | NJ | 2026-05-06 22:35 | NJDOT | 66 | 61 | 85 | 5 | |||||
| Paulsboro | NJ | 2026-05-06 22:40 | NJDOT | 66 | 61 | 84 | 4 | |||||
| Paulsboro | NJ | 2026-05-06 22:45 | NJDOT | 66 | 61 | 84 | 5 | |||||
| Paulsboro | NJ | 2026-05-06 22:50 | NJDOT | 67 | 61 | 83 | 5 | |||||
| Paulsboro | NJ | 2026-05-06 23:00 | NJDOT | 67 | 62 | 84 | 8 | |||||
| Paulsboro | NJ | 2026-05-06 23:05 | NJDOT | 66 | 62 | 86 | 9 | |||||
| Paulsboro | NJ | 2026-05-06 23:10 | NJDOT | 66 | 62 | 86 | 11 | |||||
| Paulsboro | NJ | 2026-05-06 20:30 | NJDOT | 67 | 61 | 80 | 4 | |||||
| Paulsboro | NJ | 2026-05-06 20:20 | NJDOT | 68 | 61 | 80 | 5 | |||||
| Paulsboro | NJ | 2026-05-06 23:20 | NJDOT | 65 | 60 | 83 | 13 | |||||
| Paulsboro | NJ | 2026-05-06 18:30 | NJDOT | 70 | 61 | 73 | 9 | |||||
| Paulsboro | NJ | 2026-05-06 17:25 | NJDOT | 71 | 60 | 70 | 17 | |||||
| Paulsboro | NJ | 2026-05-06 17:30 | NJDOT | 70 | 60 | 70 | 17 | |||||
| Paulsboro | NJ | 2026-05-06 17:35 | NJDOT | 71 | 61 | 70 | 13 | |||||
| Paulsboro | NJ | 2026-05-06 17:40 | NJDOT | 70 | 60 | 70 | 14 | |||||
| Paulsboro | NJ | 2026-05-06 17:45 | NJDOT | 71 | 60 | 70 | 14 | |||||
| Paulsboro | NJ | 2026-05-06 17:50 | NJDOT | 70 | 60 | 71 | 14 | |||||
| Paulsboro | NJ | 2026-05-06 18:00 | NJDOT | 71 | 60 | 70 | 10 | |||||
| Paulsboro | NJ | 2026-05-06 18:05 | NJDOT | 71 | 61 | 69 | 11 | |||||
| Paulsboro | NJ | 2026-05-06 18:10 | NJDOT | 71 | 60 | 71 | 11 | |||||
| Paulsboro | NJ | 2026-05-06 18:15 | NJDOT | 70 | 60 | 71 | 12 | |||||
| Paulsboro | NJ | 2026-05-06 18:20 | NJDOT | 70 | 60 | 72 | 12 | |||||
| Paulsboro | NJ | 2026-05-06 18:25 | NJDOT | 70 | 61 | 72 | 12 | |||||
| Paulsboro | NJ | 2026-05-06 19:00 | NJDOT | 70 | 60 | 72 | 11 | |||||
| Paulsboro | NJ | 2026-05-06 20:15 | NJDOT | 68 | 61 | 79 | 8 | |||||
| Paulsboro | NJ | 2026-05-06 19:05 | NJDOT | 70 | 61 | 73 | 11 | |||||
| Paulsboro | NJ | 2026-05-06 19:10 | NJDOT | 69 | 61 | 74 | 9 | |||||
| Paulsboro | NJ | 2026-05-06 19:15 | NJDOT | 69 | 61 | 74 | 9 | |||||
| Paulsboro | NJ | 2026-05-06 19:20 | NJDOT | 69 | 61 | 75 | 9 | |||||
| Paulsboro | NJ | 2026-05-06 19:25 | NJDOT | 69 | 61 | 75 | 8 | |||||
| Paulsboro | NJ | 2026-05-06 19:30 | NJDOT | 69 | 61 | 76 | 6 | |||||
| Paulsboro | NJ | 2026-05-06 19:35 | NJDOT | 69 | 61 | 77 | 8 | |||||
| Paulsboro | NJ | 2026-05-06 19:40 | NJDOT | 69 | 61 | 77 | 9 | |||||
| Paulsboro | NJ | 2026-05-06 19:45 | NJDOT | 68 | 61 | 77 | 9 | |||||
| Paulsboro | NJ | 2026-05-06 19:50 | NJDOT | 68 | 61 | 78 | 6 | |||||
| Paulsboro | NJ | 2026-05-06 20:00 | NJDOT | 68 | 61 | 78 | 7 | |||||
| Paulsboro | NJ | 2026-05-06 20:05 | NJDOT | 68 | 61 | 78 | 6 | |||||
| Paulsboro | NJ | 2026-05-06 20:10 | NJDOT | 68 | 61 | 78 | 8 | |||||
| Paulsboro | NJ | 2026-05-06 23:15 | NJDOT | 65 | 61 | 84 | 13 | |||||
| Paulsboro | NJ | 2026-05-06 23:25 | NJDOT | 65 | 59 | 81 | 11 | |||||
| Paulsboro | NJ | 2026-05-06 17:15 | NJDOT | 70 | 60 | 72 | 10 | |||||
| Paulsboro | NJ | 2026-05-07 03:45 | NJDOT | 52 | 48 | 86 | 14 | |||||
| Paulsboro | NJ | 2026-05-07 02:40 | NJDOT | 53 | 49 | 86 | 14 | |||||
| Paulsboro | NJ | 2026-05-07 02:45 | NJDOT | 53 | 49 | 87 | 14 | |||||
| Paulsboro | NJ | 2026-05-07 02:50 | NJDOT | 53 | 49 | 86 | 13 | |||||
| Paulsboro | NJ | 2026-05-07 03:00 | NJDOT | 53 | 48 | 84 | 16 | |||||
| Paulsboro | NJ | 2026-05-07 03:05 | NJDOT | 52 | 47 | 83 | 19 | |||||
| Paulsboro | NJ | 2026-05-07 03:10 | NJDOT | 52 | 47 | 83 | 19 | |||||
| Paulsboro | NJ | 2026-05-07 03:15 | NJDOT | 52 | 47 | 83 | 16 | |||||
| Paulsboro | NJ | 2026-05-07 03:20 | NJDOT | 52 | 48 | 85 | 15 | |||||
| Paulsboro | NJ | 2026-05-07 03:25 | NJDOT | 52 | 49 | 87 | 13 | |||||
| Paulsboro | NJ | 2026-05-07 03:30 | NJDOT | 52 | 48 | 87 | 14 | |||||
| Paulsboro | NJ | 2026-05-07 03:35 | NJDOT | 52 | 49 | 86 | 15 | |||||
| Paulsboro | NJ | 2026-05-07 03:40 | NJDOT | 52 | 48 | 85 | 15 | |||||
| Paulsboro | NJ | 2026-05-07 03:50 | NJDOT | 52 | 48 | 84 | 15 | |||||
| Paulsboro | NJ | 2026-05-07 02:30 | NJDOT | 53 | 49 | 86 | 13 | |||||
| Paulsboro | NJ | 2026-05-07 04:00 | NJDOT | 53 | 47 | 83 | 14 | |||||
| Paulsboro | NJ | 2026-05-07 04:05 | NJDOT | 53 | 48 | 84 | 14 | |||||
| Paulsboro | NJ | 2026-05-07 04:10 | NJDOT | 53 | 48 | 85 | 12 | |||||
| Paulsboro | NJ | 2026-05-07 04:15 | NJDOT | 52 | 48 | 85 | 11 | |||||
| Paulsboro | NJ | 2026-05-07 04:20 | NJDOT | 52 | 48 | 84 | 11 | |||||
| Paulsboro | NJ | 2026-05-07 04:25 | NJDOT | 52 | 47 | 84 | 11 | |||||
| Paulsboro | NJ | 2026-05-07 04:30 | NJDOT | 52 | 48 | 85 | 9 | |||||
| Paulsboro | NJ | 2026-05-07 04:35 | NJDOT | 52 | 47 | 84 | 11 | |||||
| Paulsboro | NJ | 2026-05-07 04:40 | NJDOT | 52 | 47 | 84 | 11 | |||||
| Paulsboro | NJ | 2026-05-07 04:45 | NJDOT | 52 | 47 | 83 | 11 | |||||
| Paulsboro | NJ | 2026-05-07 04:50 | NJDOT | 52 | 47 | 83 | 11 | |||||
| Paulsboro | NJ | 2026-05-07 05:00 | NJDOT | 52 | 47 | 85 | 9 | |||||
| Paulsboro | NJ | 2026-05-07 05:05 | NJDOT | 52 | 48 | 86 | 9 | |||||
| Paulsboro | NJ | 2026-05-07 02:35 | NJDOT | 53 | 49 | 88 | 13 | |||||
| Paulsboro | NJ | 2026-05-07 02:25 | NJDOT | 53 | 49 | 87 | 13 | |||||
| Paulsboro | NJ | 2026-05-06 23:30 | NJDOT | 65 | 59 | 81 | 12 | |||||
| Paulsboro | NJ | 2026-05-07 01:00 | NJDOT | 59 | 53 | 82 | 17 | |||||
| Paulsboro | NJ | 2026-05-06 23:35 | NJDOT | 65 | 59 | 80 | 12 | |||||
| Paulsboro | NJ | 2026-05-06 23:40 | NJDOT | 65 | 59 | 81 | 10 | |||||
| Paulsboro | NJ | 2026-05-06 23:45 | NJDOT | 65 | 59 | 81 | 10 | |||||
| Paulsboro | NJ | 2026-05-06 23:50 | NJDOT | 65 | 59 | 82 | 9 | |||||
| Paulsboro | NJ | 2026-05-07 00:00 | NJDOT | 64 | 59 | 84 | 12 | |||||
| Paulsboro | NJ | 2026-05-07 00:05 | NJDOT | 64 | 59 | 85 | 12 | |||||
| Paulsboro | NJ | 2026-05-07 00:10 | NJDOT | 64 | 59 | 86 | 12 | |||||
| Paulsboro | NJ | 2026-05-07 00:15 | NJDOT | 64 | 59 | 87 | 11 | |||||
| Paulsboro | NJ | 2026-05-07 00:20 | NJDOT | 62 | 57 | 84 | 15 | |||||
| Paulsboro | NJ | 2026-05-07 00:25 | NJDOT | 60 | 56 | 86 | 17 | |||||
| Paulsboro | NJ | 2026-05-07 00:30 | NJDOT | 60 | 55 | 84 | 17 | |||||
| Paulsboro | NJ | 2026-05-07 00:40 | NJDOT | 59 | 54 | 83 | 13 | |||||
| Paulsboro | NJ | 2026-05-07 01:05 | NJDOT | 59 | 53 | 80 | 14 | |||||
| Paulsboro | NJ | 2026-05-07 02:20 | NJDOT | 53 | 49 | 87 | 14 | |||||
| Paulsboro | NJ | 2026-05-07 01:10 | NJDOT | 58 | 53 | 81 | 12 | |||||
| Paulsboro | NJ | 2026-05-07 01:15 | NJDOT | 58 | 52 | 80 | 13 | |||||
| Paulsboro | NJ | 2026-05-07 01:20 | NJDOT | 58 | 51 | 77 | 15 | |||||
| Paulsboro | NJ | 2026-05-07 01:25 | NJDOT | 58 | 51 | 77 | 15 | |||||
| Paulsboro | NJ | 2026-05-07 01:30 | NJDOT | 58 | 50 | 75 | 14 | |||||
| Paulsboro | NJ | 2026-05-07 01:35 | NJDOT | 57 | 50 | 77 | 17 | |||||
| Paulsboro | NJ | 2026-05-07 01:40 | NJDOT | 55 | 50 | 85 | 17 | |||||
| Paulsboro | NJ | 2026-05-07 01:45 | NJDOT | 54 | 51 | 90 | 18 | |||||
| Paulsboro | NJ | 2026-05-07 01:50 | NJDOT | 53 | 51 | 93 | 18 | |||||
| Paulsboro | NJ | 2026-05-07 02:00 | NJDOT | 53 | 51 | 91 | 16 | |||||
| Paulsboro | NJ | 2026-05-07 02:05 | NJDOT | 53 | 51 | 90 | 16 | |||||
| Paulsboro | NJ | 2026-05-07 02:10 | NJDOT | 53 | 50 | 87 | 14 | |||||
| Paulsboro | NJ | 2026-05-07 02:15 | NJDOT | 53 | 49 | 87 | 14 | |||||
| Paulsboro | NJ | 2026-05-06 17:20 | NJDOT | 71 | 60 | 69 | 15 | |||||
| Paulsboro | NJ | 2026-05-06 17:10 | NJDOT | 69 | 60 | 73 | 10 | |||||
| Paulsboro | NJ | 2026-05-06 05:20 | NJDOT | 64 | 57 | 78 | 13 | |||||
| Paulsboro | NJ | 2026-05-06 09:40 | NJDOT | 69 | 55 | 62 | 13 | |||||
| Paulsboro | NJ | 2026-05-06 08:35 | NJDOT | 67 | 56 | 67 | 16 | |||||
| Paulsboro | NJ | 2026-05-06 08:40 | NJDOT | 67 | 56 | 67 | 17 | |||||
| Paulsboro | NJ | 2026-05-06 08:45 | NJDOT | 67 | 56 | 67 | 17 | |||||
| Paulsboro | NJ | 2026-05-06 08:50 | NJDOT | 68 | 56 | 66 | 16 | |||||
| Paulsboro | NJ | 2026-05-06 09:00 | NJDOT | 68 | 56 | 65 | 19 | |||||
| Paulsboro | NJ | 2026-05-06 09:05 | NJDOT | 68 | 56 | 66 | 15 | |||||
| Paulsboro | NJ | 2026-05-06 09:10 | NJDOT | 68 | 56 | 65 | 14 | |||||
| Paulsboro | NJ | 2026-05-06 09:15 | NJDOT | 68 | 56 | 66 | 14 | |||||
| Paulsboro | NJ | 2026-05-06 09:20 | NJDOT | 68 | 56 | 65 | 14 | |||||
| Paulsboro | NJ | 2026-05-06 09:25 | NJDOT | 68 | 55 | 64 | 15 | |||||
| Paulsboro | NJ | 2026-05-06 09:30 | NJDOT | 68 | 56 | 64 | 15 | |||||
| Paulsboro | NJ | 2026-05-06 09:35 | NJDOT | 69 | 56 | 63 | 15 | |||||
| Paulsboro | NJ | 2026-05-06 09:45 | NJDOT | 69 | 55 | 62 | 17 | |||||
| Paulsboro | NJ | 2026-05-06 08:25 | NJDOT | 67 | 56 | 68 | 15 | |||||
| Paulsboro | NJ | 2026-05-06 09:50 | NJDOT | 69 | 55 | 62 | 17 | |||||
| Paulsboro | NJ | 2026-05-06 10:00 | NJDOT | 70 | 55 | 61 | 18 | |||||
| Paulsboro | NJ | 2026-05-06 10:05 | NJDOT | 70 | 56 | 60 | 18 | |||||
| Paulsboro | NJ | 2026-05-06 10:10 | NJDOT | 69 | 55 | 61 | 18 | |||||
| Paulsboro | NJ | 2026-05-06 10:15 | NJDOT | 69 | 55 | 62 | 18 | |||||
| Paulsboro | NJ | 2026-05-06 10:20 | NJDOT | 69 | 55 | 62 | 22 | |||||
| Paulsboro | NJ | 2026-05-06 10:25 | NJDOT | 69 | 55 | 63 | 22 | |||||
| Paulsboro | NJ | 2026-05-06 10:30 | NJDOT | 69 | 56 | 64 | 13 | |||||
| Paulsboro | NJ | 2026-05-06 10:35 | NJDOT | 69 | 56 | 62 | 19 | |||||
| Paulsboro | NJ | 2026-05-06 10:40 | NJDOT | 69 | 56 | 62 | 19 | |||||
| Paulsboro | NJ | 2026-05-06 10:45 | NJDOT | 69 | 56 | 62 | 15 | |||||
| Paulsboro | NJ | 2026-05-06 11:00 | NJDOT | 69 | 56 | 63 | 14 | |||||
| Paulsboro | NJ | 2026-05-06 11:05 | NJDOT | 69 | 56 | 64 | 15 | |||||
| Paulsboro | NJ | 2026-05-06 08:30 | NJDOT | 67 | 56 | 67 | 16 | |||||
| Paulsboro | NJ | 2026-05-06 08:20 | NJDOT | 67 | 56 | 69 | 16 | |||||
| Paulsboro | NJ | 2026-05-06 11:15 | NJDOT | 68 | 56 | 67 | 14 | |||||
| Paulsboro | NJ | 2026-05-06 06:30 | NJDOT | 64 | 57 | 78 | 14 | |||||
| Paulsboro | NJ | 2026-05-06 05:25 | NJDOT | 64 | 57 | 78 | 16 | |||||
| Paulsboro | NJ | 2026-05-06 05:30 | NJDOT | 64 | 57 | 78 | 16 | |||||
| Paulsboro | NJ | 2026-05-06 05:35 | NJDOT | 64 | 57 | 78 | 12 | |||||
| Paulsboro | NJ | 2026-05-06 05:40 | NJDOT | 64 | 57 | 78 | 17 | |||||
| Paulsboro | NJ | 2026-05-06 05:45 | NJDOT | 64 | 57 | 78 | 17 | |||||
| Paulsboro | NJ | 2026-05-06 05:50 | NJDOT | 64 | 57 | 78 | 12 | |||||
| Paulsboro | NJ | 2026-05-06 06:00 | NJDOT | 64 | 57 | 79 | 12 | |||||
| Paulsboro | NJ | 2026-05-06 06:05 | NJDOT | 64 | 57 | 79 | 14 | |||||
| Paulsboro | NJ | 2026-05-06 06:10 | NJDOT | 64 | 57 | 79 | 14 | |||||
| Paulsboro | NJ | 2026-05-06 06:15 | NJDOT | 64 | 57 | 79 | 12 | |||||
| Paulsboro | NJ | 2026-05-06 06:20 | NJDOT | 64 | 57 | 79 | 13 | |||||
| Paulsboro | NJ | 2026-05-06 06:25 | NJDOT | 64 | 57 | 78 | 13 | |||||
| Paulsboro | NJ | 2026-05-06 06:35 | NJDOT | 64 | 57 | 77 | 14 | |||||
| Paulsboro | NJ | 2026-05-06 08:15 | NJDOT | 67 | 56 | 69 | 16 | |||||
| Paulsboro | NJ | 2026-05-06 07:00 | NJDOT | 64 | 56 | 75 | 15 | |||||
| Paulsboro | NJ | 2026-05-06 07:05 | NJDOT | 64 | 56 | 75 | 12 | |||||
| Paulsboro | NJ | 2026-05-06 07:15 | NJDOT | 65 | 56 | 74 | 13 | |||||
| Paulsboro | NJ | 2026-05-06 07:20 | NJDOT | 65 | 56 | 74 | 16 | |||||
| Paulsboro | NJ | 2026-05-06 07:25 | NJDOT | 65 | 56 | 74 | 16 | |||||
| Paulsboro | NJ | 2026-05-06 07:30 | NJDOT | 65 | 56 | 74 | 16 | |||||
| Paulsboro | NJ | 2026-05-06 07:35 | NJDOT | 65 | 56 | 74 | 12 | |||||
| Paulsboro | NJ | 2026-05-06 07:40 | NJDOT | 65 | 56 | 73 | 13 | |||||
| Paulsboro | NJ | 2026-05-06 07:45 | NJDOT | 65 | 56 | 73 | 13 | |||||
| Paulsboro | NJ | 2026-05-06 07:50 | NJDOT | 65 | 56 | 73 | 11 | |||||
| Paulsboro | NJ | 2026-05-06 08:00 | NJDOT | 66 | 56 | 71 | 14 | |||||
| Paulsboro | NJ | 2026-05-06 08:05 | NJDOT | 67 | 56 | 71 | 14 | |||||
| Paulsboro | NJ | 2026-05-06 08:10 | NJDOT | 67 | 56 | 69 | 13 | |||||
| Paulsboro | NJ | 2026-05-06 11:10 | NJDOT | 68 | 56 | 67 | 15 | |||||
| Paulsboro | NJ | 2026-05-06 11:20 | NJDOT | 67 | 57 | 70 | 14 | |||||
| Paulsboro | NJ | 2026-05-06 17:05 | NJDOT | 69 | 60 | 72 | 11 | |||||
| Paulsboro | NJ | 2026-05-06 15:40 | NJDOT | 67 | 59 | 75 | 15 | |||||
| Paulsboro | NJ | 2026-05-06 14:35 | NJDOT | 66 | 59 | 79 | 17 | |||||
| Paulsboro | NJ | 2026-05-06 14:40 | NJDOT | 66 | 59 | 78 | 13 | |||||
| Paulsboro | NJ | 2026-05-06 14:45 | NJDOT | 66 | 59 | 78 | 13 | |||||
| Paulsboro | NJ | 2026-05-06 14:50 | NJDOT | 66 | 59 | 78 | 14 | |||||
| Paulsboro | NJ | 2026-05-06 15:00 | NJDOT | 67 | 60 | 78 | 16 | |||||
| Paulsboro | NJ | 2026-05-06 15:05 | NJDOT | 67 | 60 | 77 | 16 | |||||
| Paulsboro | NJ | 2026-05-06 15:10 | NJDOT | 67 | 59 | 77 | 16 | |||||
| Paulsboro | NJ | 2026-05-06 15:15 | NJDOT | 67 | 60 | 77 | 15 | |||||
| Paulsboro | NJ | 2026-05-06 15:20 | NJDOT | 67 | 59 | 77 | 15 | |||||
| Paulsboro | NJ | 2026-05-06 15:25 | NJDOT | 67 | 59 | 75 | 15 | |||||
| Paulsboro | NJ | 2026-05-06 15:30 | NJDOT | 67 | 59 | 76 | 15 | |||||
| Paulsboro | NJ | 2026-05-06 15:35 | NJDOT | 67 | 59 | 76 | 13 | |||||
| Paulsboro | NJ | 2026-05-06 15:45 | NJDOT | 68 | 60 | 75 | 15 | |||||
| Paulsboro | NJ | 2026-05-06 14:25 | NJDOT | 66 | 59 | 80 | 12 | |||||
| Paulsboro | NJ | 2026-05-06 15:50 | NJDOT | 68 | 59 | 74 | 15 | |||||
| Paulsboro | NJ | 2026-05-06 16:00 | NJDOT | 67 | 59 | 75 | 16 | |||||
| Paulsboro | NJ | 2026-05-06 16:05 | NJDOT | 68 | 59 | 74 | 16 | |||||
| Paulsboro | NJ | 2026-05-06 16:10 | NJDOT | 68 | 60 | 74 | 14 | |||||
| Paulsboro | NJ | 2026-05-06 16:15 | NJDOT | 69 | 60 | 73 | 12 | |||||
| Paulsboro | NJ | 2026-05-06 16:20 | NJDOT | 69 | 60 | 72 | 14 | |||||
| Paulsboro | NJ | 2026-05-06 16:25 | NJDOT | 69 | 60 | 72 | 16 | |||||
| Paulsboro | NJ | 2026-05-06 16:30 | NJDOT | 69 | 60 | 72 | 16 | |||||
| Paulsboro | NJ | 2026-05-06 16:35 | NJDOT | 69 | 60 | 72 | 17 | |||||
| Paulsboro | NJ | 2026-05-06 16:40 | NJDOT | 69 | 60 | 71 | 18 | |||||
| Paulsboro | NJ | 2026-05-06 16:45 | NJDOT | 69 | 60 | 72 | 18 | |||||
| Paulsboro | NJ | 2026-05-06 16:50 | NJDOT | 69 | 60 | 73 | 12 | |||||
| Paulsboro | NJ | 2026-05-06 17:00 | NJDOT | 70 | 60 | 72 | 11 | |||||
| Paulsboro | NJ | 2026-05-06 14:30 | NJDOT | 66 | 60 | 79 | 17 | |||||
| Paulsboro | NJ | 2026-05-06 14:20 | NJDOT | 66 | 60 | 80 | 11 | |||||
| Paulsboro | NJ | 2026-05-06 11:25 | NJDOT | 67 | 57 | 71 | 13 | |||||
| Paulsboro | NJ | 2026-05-06 12:35 | NJDOT | 66 | 60 | 79 | 18 | |||||
| Paulsboro | NJ | 2026-05-06 11:30 | NJDOT | 67 | 58 | 72 | 11 | |||||
| Paulsboro | NJ | 2026-05-06 11:35 | NJDOT | 67 | 57 | 71 | 9 | |||||
| Paulsboro | NJ | 2026-05-06 11:40 | NJDOT | 67 | 58 | 71 | 10 | |||||
| Paulsboro | NJ | 2026-05-06 11:45 | NJDOT | 67 | 58 | 72 | 11 | |||||
| Paulsboro | NJ | 2026-05-06 11:50 | NJDOT | 67 | 58 | 72 | 11 | |||||
| Paulsboro | NJ | 2026-05-06 12:00 | NJDOT | 67 | 58 | 74 | 11 | |||||
| Paulsboro | NJ | 2026-05-06 12:05 | NJDOT | 66 | 59 | 77 | 11 | |||||
| Paulsboro | NJ | 2026-05-06 12:10 | NJDOT | 66 | 58 | 77 | 11 | |||||
| Paulsboro | NJ | 2026-05-06 12:15 | NJDOT | 66 | 59 | 77 | 11 | |||||
| Paulsboro | NJ | 2026-05-06 12:20 | NJDOT | 66 | 59 | 80 | 9 | |||||
| Paulsboro | NJ | 2026-05-06 12:25 | NJDOT | 66 | 59 | 79 | 16 | |||||
| Paulsboro | NJ | 2026-05-06 12:30 | NJDOT | 66 | 59 | 80 | 16 | |||||
| Paulsboro | NJ | 2026-05-06 13:00 | NJDOT | 66 | 59 | 79 | 15 | |||||
| Paulsboro | NJ | 2026-05-06 14:15 | NJDOT | 66 | 60 | 80 | 12 | |||||
| Paulsboro | NJ | 2026-05-06 13:05 | NJDOT | 66 | 59 | 79 | 15 | |||||
| Paulsboro | NJ | 2026-05-06 13:10 | NJDOT | 66 | 59 | 79 | 15 | |||||
| Paulsboro | NJ | 2026-05-06 13:15 | NJDOT | 66 | 59 | 79 | 15 | |||||
| Paulsboro | NJ | 2026-05-06 13:20 | NJDOT | 66 | 59 | 79 | 15 | |||||
| Paulsboro | NJ | 2026-05-06 13:25 | NJDOT | 66 | 59 | 78 | 15 | |||||
| Paulsboro | NJ | 2026-05-06 13:30 | NJDOT | 66 | 58 | 77 | 16 | |||||
| Paulsboro | NJ | 2026-05-06 13:35 | NJDOT | 66 | 58 | 77 | 16 | |||||
| Paulsboro | NJ | 2026-05-06 13:40 | NJDOT | 66 | 58 | 78 | 14 | |||||
| Paulsboro | NJ | 2026-05-06 13:45 | NJDOT | 66 | 59 | 77 | 18 | |||||
| Paulsboro | NJ | 2026-05-06 13:50 | NJDOT | 65 | 59 | 81 | 18 | |||||
| Paulsboro | NJ | 2026-05-06 14:00 | NJDOT | 65 | 59 | 82 | 15 | |||||
| Paulsboro | NJ | 2026-05-06 14:05 | NJDOT | 65 | 60 | 81 | 11 | |||||
| Paulsboro | NJ | 2026-05-06 14:10 | NJDOT | 65 | 60 | 81 | 12 | |||||
| Paulsboro | NJ | 2026-05-07 05:10 | NJDOT | 52 | 47 | 85 | 9 |
data collection created in 0.032418966293335 (queried in 0.007550) rendered in: 0.00034689903259277

